createdAt,value
2019-03-23T00:00:12.268Z,7.90
2019-03-23T00:02:41.746Z,7.90
2019-03-23T00:05:11.526Z,8.00
2019-03-23T00:07:41.075Z,8.00
2019-03-23T00:10:10.473Z,8.00
2019-03-23T00:12:40.286Z,8.00
2019-03-23T00:15:10.233Z,8.00
2019-03-23T00:17:40.103Z,8.00
2019-03-23T00:20:09.498Z,7.90
2019-03-23T00:22:38.995Z,8.00
2019-03-23T00:25:08.541Z,8.10
2019-03-23T00:27:37.832Z,8.10
2019-03-23T00:30:08.598Z,8.00
2019-03-23T00:32:38.136Z,8.00
2019-03-23T00:35:08.083Z,8.00
2019-03-23T00:37:37.459Z,8.00
2019-03-23T00:40:07.658Z,7.90
2019-03-23T00:42:36.952Z,7.80
2019-03-23T00:45:06.450Z,7.90
2019-03-23T00:47:35.771Z,7.70
2019-03-23T00:50:05.845Z,7.60
2019-03-23T00:52:35.332Z,7.50
2019-03-23T00:55:05.306Z,7.60
2019-03-23T00:57:34.635Z,7.70
2019-03-23T01:00:04.304Z,7.70
2019-03-23T01:02:33.731Z,7.70
2019-03-23T01:05:03.173Z,7.70
2019-03-23T01:07:32.472Z,7.50
2019-03-23T01:10:01.907Z,7.40
2019-03-23T01:12:31.280Z,7.40
2019-03-23T01:15:00.656Z,7.50
2019-03-23T01:17:30.063Z,7.50
2019-03-23T01:19:59.604Z,7.40
2019-03-23T01:22:28.928Z,7.40
2019-03-23T01:24:58.266Z,7.30
2019-03-23T01:27:27.605Z,7.40
2019-03-23T01:29:56.931Z,7.50
2019-03-23T01:32:26.239Z,7.40
2019-03-23T01:34:55.575Z,7.40
2019-03-23T01:37:24.917Z,7.30
2019-03-23T01:39:54.243Z,7.30
2019-03-23T01:42:23.586Z,7.30
2019-03-23T01:44:53.180Z,7.40
2019-03-23T01:47:23.225Z,7.40
2019-03-23T01:49:52.661Z,7.40
2019-03-23T01:52:22.071Z,7.50
2019-03-23T01:54:51.404Z,7.50
2019-03-23T01:57:20.789Z,7.50
2019-03-23T01:59:52.016Z,7.40
2019-03-23T02:02:22.129Z,7.30
2019-03-23T02:04:51.583Z,7.30
2019-03-23T02:07:20.871Z,7.20
2019-03-23T02:09:53.998Z,7.10
2019-03-23T02:12:23.935Z,7.20
2019-03-23T02:14:53.896Z,7.20
2019-03-23T02:17:23.406Z,7.20
2019-03-23T02:19:52.822Z,7.30
2019-03-23T02:22:22.185Z,7.10
2019-03-23T02:24:51.537Z,7.20
2019-03-23T02:27:20.958Z,7.10
2019-03-23T02:29:50.467Z,7.10
2019-03-23T02:32:19.884Z,7.10
2019-03-23T02:34:49.310Z,7.00
2019-03-23T02:37:27.564Z,7.10
2019-03-23T02:39:49.688Z,7.10
2019-03-23T02:42:19.072Z,7.10
2019-03-23T02:44:48.487Z,7.10
2019-03-23T02:47:17.800Z,7.10
2019-03-23T02:49:47.159Z,7.00
2019-03-23T02:52:16.620Z,7.10
2019-03-23T02:54:45.973Z,7.20
2019-03-23T02:57:15.328Z,7.30
2019-03-23T02:59:44.691Z,7.30
2019-03-23T03:02:14.005Z,7.40
2019-03-23T03:04:43.312Z,7.40
2019-03-23T03:07:12.640Z,7.60
2019-03-23T03:09:42.057Z,7.40
2019-03-23T03:12:11.409Z,7.30
2019-03-23T03:14:40.713Z,7.50
2019-03-23T03:17:10.053Z,7.40
2019-03-23T03:19:39.882Z,7.40
2019-03-23T03:22:09.219Z,7.50
2019-03-23T03:24:38.532Z,7.50
2019-03-23T03:27:07.859Z,7.50
2019-03-23T03:29:37.271Z,7.60
2019-03-23T03:32:06.603Z,7.60
2019-03-23T03:34:35.900Z,7.40
2019-03-23T03:37:05.363Z,7.30
2019-03-23T03:39:34.700Z,7.20
2019-03-23T03:42:04.412Z,7.10
2019-03-23T03:44:33.819Z,7.10
2019-03-23T03:47:03.158Z,7.20
2019-03-23T03:49:32.536Z,7.20
2019-03-23T03:52:01.929Z,7.10
2019-03-23T03:54:31.239Z,7.00
2019-03-23T03:57:00.658Z,7.00
2019-03-23T03:59:30.027Z,7.00
2019-03-23T04:01:59.495Z,7.00
2019-03-23T04:04:28.955Z,7.00
2019-03-23T04:06:58.277Z,7.00
2019-03-23T04:09:27.593Z,7.00
2019-03-23T04:11:57.114Z,7.00
2019-03-23T04:14:26.760Z,7.00
2019-03-23T04:16:56.191Z,6.90
2019-03-23T04:19:25.607Z,6.90
2019-03-23T04:21:54.981Z,6.90
2019-03-23T04:24:24.320Z,6.90
2019-03-23T04:26:53.629Z,6.80
2019-03-23T04:29:23.078Z,6.80
2019-03-23T04:31:52.428Z,6.90
2019-03-23T04:34:21.716Z,6.80
2019-03-23T04:36:51.158Z,6.70
2019-03-23T04:39:20.493Z,6.80
2019-03-23T04:41:49.910Z,6.80
2019-03-23T04:44:19.240Z,6.80
2019-03-23T04:46:48.655Z,6.70
2019-03-23T04:49:18.052Z,6.60
2019-03-23T04:51:47.418Z,6.70
2019-03-23T04:54:16.887Z,6.70
2019-03-23T04:56:46.233Z,6.80
2019-03-23T04:59:15.613Z,6.90
2019-03-23T05:01:45.005Z,6.80
2019-03-23T05:04:14.419Z,6.70
2019-03-23T05:06:43.775Z,6.80
2019-03-23T05:09:13.313Z,6.70
2019-03-23T05:11:42.678Z,6.70
2019-03-23T05:14:12.063Z,6.70
2019-03-23T05:16:41.383Z,6.70
2019-03-23T05:19:10.875Z,6.70
2019-03-23T05:21:40.301Z,6.70
2019-03-23T05:24:09.775Z,6.60
2019-03-23T05:26:39.265Z,6.60
2019-03-23T05:29:08.607Z,6.60
2019-03-23T05:31:38.032Z,6.70
2019-03-23T05:34:07.362Z,6.80
2019-03-23T05:36:36.830Z,6.70
2019-03-23T05:39:07.212Z,6.60
2019-03-23T05:41:36.623Z,6.60
2019-03-23T05:44:06.059Z,6.60
2019-03-23T05:46:35.491Z,6.50
2019-03-23T05:49:04.912Z,6.40
2019-03-23T05:51:34.290Z,6.40
2019-03-23T05:54:03.774Z,6.50
2019-03-23T05:56:33.229Z,6.50
2019-03-23T05:59:02.572Z,6.60
2019-03-23T06:01:31.955Z,6.70
2019-03-23T06:04:01.295Z,6.60
2019-03-23T06:06:30.660Z,6.60
2019-03-23T06:09:01.185Z,6.70
2019-03-23T06:11:30.563Z,6.60
2019-03-23T06:13:59.883Z,6.70
2019-03-23T06:16:29.235Z,6.70
2019-03-23T06:18:58.523Z,6.80
2019-03-23T06:21:27.875Z,6.70
2019-03-23T06:23:57.194Z,6.70
2019-03-23T06:26:26.499Z,6.80
2019-03-23T06:28:55.812Z,6.80
2019-03-23T06:31:25.217Z,6.80
2019-03-23T06:33:54.659Z,6.90
2019-03-23T06:36:23.964Z,6.80
2019-03-23T06:38:53.415Z,6.70
2019-03-23T06:41:22.816Z,6.80
2019-03-23T06:43:52.208Z,6.80
2019-03-23T06:46:21.570Z,6.70
2019-03-23T06:48:50.892Z,6.70
2019-03-23T06:51:27.521Z,6.80
2019-03-23T06:53:56.969Z,6.80
2019-03-23T06:56:26.376Z,6.90
2019-03-23T06:58:55.676Z,7.00
2019-03-23T07:01:25.044Z,7.00
2019-03-23T07:03:54.444Z,7.00
2019-03-23T07:06:25.309Z,7.00
2019-03-23T07:09:16.183Z,7.30
2019-03-23T07:11:42.563Z,7.30
2019-03-23T07:14:11.880Z,7.40
2019-03-23T07:16:43.419Z,7.50
2019-03-23T07:19:12.889Z,7.60
2019-03-23T07:21:44.673Z,7.60
2019-03-23T07:24:14.007Z,7.80
2019-03-23T07:26:43.452Z,8.00
2019-03-23T07:29:13.096Z,8.10
2019-03-23T07:31:42.900Z,8.30
2019-03-23T07:34:12.263Z,8.60
2019-03-23T07:36:41.770Z,9.00
2019-03-23T07:39:11.126Z,9.10
2019-03-23T07:41:40.508Z,9.40
2019-03-23T07:44:09.851Z,9.60
2019-03-23T07:46:39.253Z,9.80
2019-03-23T07:49:08.590Z,10.00
2019-03-23T07:51:37.930Z,10.00
2019-03-23T07:54:07.321Z,9.90
2019-03-23T07:56:36.686Z,10.10
2019-03-23T07:59:06.023Z,10.20
2019-03-23T08:01:35.521Z,10.30
2019-03-23T08:04:04.952Z,10.40
2019-03-23T08:06:34.381Z,10.50
2019-03-23T08:09:04.990Z,10.50
2019-03-23T08:11:34.385Z,10.70
2019-03-23T08:14:03.746Z,10.80
2019-03-23T08:16:33.072Z,11.00
2019-03-23T08:19:02.424Z,11.00
2019-03-23T08:21:31.874Z,11.30
2019-03-23T08:24:01.335Z,11.30
2019-03-23T08:26:30.764Z,11.60
2019-03-23T08:29:00.360Z,11.90
2019-03-23T08:31:29.757Z,12.00
2019-03-23T08:33:59.231Z,12.00
2019-03-23T08:36:28.615Z,12.30
2019-03-23T08:38:58.015Z,12.40
2019-03-23T08:41:27.642Z,12.50
2019-03-23T08:43:56.993Z,12.60
2019-03-23T08:46:26.453Z,12.80
2019-03-23T08:48:55.806Z,12.80
2019-03-23T08:51:25.199Z,12.90
2019-03-23T08:53:54.689Z,12.70
2019-03-23T08:56:24.076Z,12.80
2019-03-23T08:58:52.856Z,13.00
2019-03-23T09:01:22.362Z,13.10
2019-03-23T09:04:10.464Z,13.30
2019-03-23T09:06:38.418Z,13.50
2019-03-23T09:09:08.139Z,13.60
2019-03-23T09:11:37.660Z,13.70
2019-03-23T09:14:07.211Z,13.70
2019-03-23T09:16:36.731Z,13.90
2019-03-23T09:19:06.211Z,13.70
2019-03-23T09:21:35.658Z,13.90
2019-03-23T09:24:05.095Z,14.10
2019-03-23T09:26:34.435Z,14.20
2019-03-23T09:29:03.804Z,14.30
2019-03-23T09:31:33.415Z,14.20
2019-03-23T09:34:02.840Z,14.50
2019-03-23T09:36:32.400Z,14.40
2019-03-23T09:39:01.807Z,14.60
2019-03-23T09:41:31.283Z,14.90
2019-03-23T09:44:00.641Z,15.10
2019-03-23T09:46:30.136Z,15.10
2019-03-23T09:48:59.777Z,15.00
2019-03-23T09:51:29.405Z,15.10
2019-03-23T09:53:59.282Z,15.20
2019-03-23T09:56:28.660Z,15.30
2019-03-23T09:58:58.104Z,15.20
2019-03-23T10:01:27.945Z,15.30
2019-03-23T10:03:57.580Z,15.50
2019-03-23T10:06:27.183Z,15.40
2019-03-23T10:08:56.734Z,15.50
2019-03-23T10:11:26.234Z,15.60
2019-03-23T10:13:55.602Z,15.80
2019-03-23T10:16:25.152Z,16.00
2019-03-23T10:18:54.731Z,16.20
2019-03-23T10:21:24.119Z,16.10
2019-03-23T10:23:54.608Z,16.20
2019-03-23T10:26:24.243Z,16.40
2019-03-23T10:28:53.668Z,16.60
2019-03-23T10:31:23.146Z,17.00
2019-03-23T10:33:52.760Z,17.50
2019-03-23T10:36:22.352Z,18.00
2019-03-23T10:38:51.978Z,19.30
2019-03-23T10:41:22.864Z,20.60
2019-03-23T10:43:52.264Z,21.30
2019-03-23T10:46:21.672Z,22.00
2019-03-23T10:48:51.019Z,22.10
2019-03-23T10:51:20.489Z,22.50
2019-03-23T10:53:49.859Z,21.90
2019-03-23T10:56:19.289Z,22.60
2019-03-23T10:58:48.647Z,23.10
2019-03-23T11:01:18.022Z,23.00
2019-03-23T11:03:47.436Z,23.90
2019-03-23T11:06:16.926Z,23.40
2019-03-23T11:08:46.352Z,24.60
2019-03-23T11:11:15.816Z,25.30
2019-03-23T11:13:45.215Z,25.00
2019-03-23T11:16:14.564Z,24.40
2019-03-23T11:18:43.903Z,23.90
2019-03-23T11:21:13.284Z,24.90
2019-03-23T11:23:42.607Z,24.50
2019-03-23T11:26:11.953Z,24.10
2019-03-23T11:28:41.367Z,24.10
2019-03-23T11:31:10.785Z,24.50
2019-03-23T11:33:40.178Z,24.00
2019-03-23T11:36:09.530Z,24.10
2019-03-23T11:38:38.857Z,23.30
2019-03-23T11:41:08.409Z,24.30
2019-03-23T11:43:37.777Z,24.50
2019-03-23T11:46:07.174Z,25.10
2019-03-23T11:48:36.606Z,26.10
2019-03-23T11:51:06.099Z,26.10
2019-03-23T11:53:35.479Z,25.00
2019-03-23T11:56:04.811Z,24.70
2019-03-23T11:58:34.135Z,24.90
2019-03-23T12:01:03.604Z,24.60
2019-03-23T12:03:33.128Z,23.50
2019-03-23T12:06:02.653Z,23.80
2019-03-23T12:08:32.083Z,24.70
2019-03-23T12:11:03.166Z,24.50
2019-03-23T12:13:32.805Z,24.90
2019-03-23T12:16:02.231Z,24.90
2019-03-23T12:18:31.589Z,24.50
2019-03-23T12:21:00.940Z,24.40
2019-03-23T12:23:30.350Z,24.70
2019-03-23T12:25:59.744Z,25.10
2019-03-23T12:28:29.157Z,24.30
2019-03-23T12:30:58.595Z,22.80
2019-03-23T12:33:27.955Z,23.90
2019-03-23T12:35:57.440Z,21.70
2019-03-23T12:38:26.897Z,20.50
2019-03-23T12:40:57.077Z,21.90
2019-03-23T12:43:26.465Z,22.50
2019-03-23T12:45:55.869Z,22.50
2019-03-23T12:48:25.205Z,20.70
2019-03-23T12:50:54.664Z,21.40
2019-03-23T12:53:24.020Z,21.30
2019-03-23T12:55:53.431Z,22.00
2019-03-23T12:58:22.962Z,22.40
2019-03-23T13:00:52.427Z,21.80
2019-03-23T13:03:21.885Z,21.10
2019-03-23T13:05:51.749Z,21.10
2019-03-23T13:08:21.271Z,20.80
2019-03-23T13:10:50.608Z,21.10
2019-03-23T13:13:20.006Z,21.40
2019-03-23T13:15:49.336Z,21.00
2019-03-23T13:18:26.888Z,21.40
2019-03-23T13:20:49.961Z,20.60
2019-03-23T13:23:19.401Z,20.80
2019-03-23T13:25:48.869Z,20.10
2019-03-23T13:28:18.353Z,19.20
2019-03-23T13:30:47.884Z,18.90
2019-03-23T13:33:17.401Z,19.80
2019-03-23T13:35:46.888Z,20.40
2019-03-23T13:38:20.785Z,18.90
2019-03-23T13:40:50.337Z,19.80
2019-03-23T13:43:19.766Z,19.80
2019-03-23T13:45:49.175Z,19.90
2019-03-23T13:48:18.536Z,20.20
2019-03-23T13:50:48.023Z,19.40
2019-03-23T13:53:17.441Z,20.30
2019-03-23T13:55:46.864Z,19.60
2019-03-23T13:58:16.401Z,20.20
2019-03-23T14:00:45.910Z,20.00
2019-03-23T14:03:15.549Z,19.40
2019-03-23T14:05:44.971Z,20.60
2019-03-23T14:08:14.472Z,20.90
2019-03-23T14:10:44.017Z,20.90
2019-03-23T14:13:15.808Z,20.30
2019-03-23T14:15:45.656Z,21.20
2019-03-23T14:18:15.085Z,17.70
2019-03-23T14:20:44.457Z,19.80
2019-03-23T14:23:13.972Z,20.30
2019-03-23T14:25:43.385Z,20.60
2019-03-23T14:28:12.732Z,21.00
2019-03-23T14:30:42.180Z,20.20
2019-03-23T14:33:11.656Z,20.50
2019-03-23T14:35:41.090Z,19.00
2019-03-23T14:38:10.463Z,18.60
2019-03-23T14:40:41.405Z,18.10
2019-03-23T14:43:10.928Z,18.20
2019-03-23T14:45:40.398Z,18.90
2019-03-23T14:48:09.890Z,19.60
2019-03-23T14:50:39.250Z,20.90
2019-03-23T14:53:08.723Z,19.30
2019-03-23T14:55:38.170Z,18.30
2019-03-23T14:58:07.584Z,18.70
2019-03-23T15:00:37.083Z,17.80
2019-03-23T15:03:06.596Z,18.50
2019-03-23T15:05:36.033Z,19.00
2019-03-23T15:08:05.701Z,19.30
2019-03-23T15:10:35.237Z,17.90
2019-03-23T15:13:08.582Z,17.00
2019-03-23T15:15:38.085Z,17.70
2019-03-23T15:18:07.833Z,16.80
2019-03-23T15:20:40.308Z,16.40
2019-03-23T15:23:12.723Z,17.00
2019-03-23T15:25:42.506Z,15.80
2019-03-23T15:28:12.061Z,16.30
2019-03-23T15:30:41.424Z,16.50
2019-03-23T15:33:12.672Z,16.40
2019-03-23T15:35:42.199Z,16.50
2019-03-23T15:38:11.563Z,15.90
2019-03-23T15:40:40.978Z,15.90
2019-03-23T15:43:10.380Z,15.80
2019-03-23T15:45:39.679Z,16.20
2019-03-23T15:48:09.058Z,15.40
2019-03-23T15:50:38.444Z,16.00
2019-03-23T15:53:08.007Z,16.30
2019-03-23T15:55:37.341Z,16.40
2019-03-23T15:58:06.835Z,16.20
2019-03-23T16:00:36.538Z,15.70
2019-03-23T16:03:05.988Z,15.60
2019-03-23T16:05:35.455Z,15.50
2019-03-23T16:08:04.928Z,15.50
2019-03-23T16:10:34.440Z,15.40
2019-03-23T16:13:03.799Z,15.60
2019-03-23T16:15:33.275Z,15.80
2019-03-23T16:18:02.652Z,15.80
2019-03-23T16:20:32.596Z,15.90
2019-03-23T16:23:02.119Z,15.00
2019-03-23T16:25:31.471Z,14.70
2019-03-23T16:28:00.773Z,14.80
2019-03-23T16:30:32.547Z,14.90
2019-03-23T16:33:02.040Z,14.90
2019-03-23T16:35:31.378Z,14.70
2019-03-23T16:38:00.753Z,14.00
2019-03-23T16:40:30.394Z,14.50
2019-03-23T16:42:59.767Z,14.80
2019-03-23T16:45:29.274Z,14.50
2019-03-23T16:48:00.268Z,14.60
2019-03-23T16:50:29.719Z,14.90
2019-03-23T16:52:59.088Z,14.60
2019-03-23T16:55:28.649Z,14.90
2019-03-23T16:57:58.119Z,15.00
2019-03-23T17:00:37.576Z,15.20
2019-03-23T17:03:07.271Z,15.20
2019-03-23T17:05:36.671Z,14.60
2019-03-23T17:08:06.390Z,14.80
2019-03-23T17:10:36.301Z,14.70
2019-03-23T17:13:05.838Z,14.40
2019-03-23T17:15:35.257Z,14.20
2019-03-23T17:18:04.781Z,14.10
2019-03-23T17:20:34.361Z,14.30
2019-03-23T17:23:03.811Z,14.40
2019-03-23T17:25:33.304Z,14.40
2019-03-23T17:28:02.710Z,14.30
2019-03-23T17:30:32.488Z,14.60
2019-03-23T17:33:01.921Z,14.60
2019-03-23T17:35:31.649Z,14.50
2019-03-23T17:38:01.035Z,14.60
2019-03-23T17:40:30.443Z,14.60
2019-03-23T17:43:05.916Z,14.70
2019-03-23T17:45:31.103Z,14.60
2019-03-23T17:48:00.630Z,14.60
2019-03-23T17:50:30.138Z,14.70
2019-03-23T17:52:59.511Z,14.40
2019-03-23T17:55:28.911Z,14.20
2019-03-23T17:57:58.359Z,14.10
2019-03-23T18:00:28.459Z,14.10
2019-03-23T18:02:57.926Z,14.10
2019-03-23T18:05:27.429Z,14.20
2019-03-23T18:07:56.823Z,14.00
2019-03-23T18:10:28.206Z,14.20
2019-03-23T18:12:57.398Z,14.10
2019-03-23T18:15:26.922Z,14.20
2019-03-23T18:17:56.427Z,14.10
2019-03-23T18:20:26.001Z,14.00
2019-03-23T18:22:55.601Z,14.10
2019-03-23T18:25:25.109Z,14.20
2019-03-23T18:27:54.730Z,14.30
2019-03-23T18:30:45.799Z,14.30
2019-03-23T18:33:15.160Z,14.40
2019-03-23T18:35:44.775Z,13.70
2019-03-23T18:38:14.169Z,13.70
2019-03-23T18:40:43.576Z,13.80
2019-03-23T18:43:13.052Z,13.90
2019-03-23T18:45:42.609Z,13.80
2019-03-23T18:48:12.055Z,13.60
2019-03-23T18:50:42.746Z,13.80
2019-03-23T18:53:12.329Z,13.80
2019-03-23T18:55:41.757Z,13.90
2019-03-23T18:58:11.309Z,13.70
2019-03-23T19:00:42.369Z,13.60
2019-03-23T19:03:12.054Z,13.70
2019-03-23T19:05:41.563Z,13.60
2019-03-23T19:08:11.975Z,13.50
2019-03-23T19:10:41.685Z,13.50
2019-03-23T19:13:11.382Z,13.20
2019-03-23T19:15:40.728Z,12.90
2019-03-23T19:18:10.313Z,12.90
2019-03-23T19:20:39.753Z,12.90
2019-03-23T19:23:09.034Z,13.00
2019-03-23T19:25:38.509Z,13.10
2019-03-23T19:28:08.090Z,13.10
2019-03-23T19:30:37.501Z,13.20
2019-03-23T19:33:07.032Z,12.50
2019-03-23T19:35:36.578Z,12.90
2019-03-23T19:38:06.236Z,12.90
2019-03-23T19:40:35.732Z,13.00
2019-03-23T19:43:05.296Z,13.10
2019-03-23T19:45:34.734Z,13.10
2019-03-23T19:48:04.309Z,13.00
2019-03-23T19:50:33.771Z,13.10
2019-03-23T19:53:03.139Z,13.20
2019-03-23T19:55:32.624Z,12.90
2019-03-23T19:58:02.098Z,13.10
2019-03-23T20:00:31.494Z,13.10
2019-03-23T20:03:01.066Z,13.10
2019-03-23T20:05:30.462Z,13.00
2019-03-23T20:07:59.899Z,12.60
2019-03-23T20:10:29.317Z,12.90
2019-03-23T20:12:58.919Z,12.90
2019-03-23T20:15:28.536Z,12.80
2019-03-23T20:17:57.987Z,12.90
2019-03-23T20:20:27.560Z,12.90
2019-03-23T20:22:57.111Z,12.80
2019-03-23T20:25:26.651Z,12.30
2019-03-23T20:27:56.592Z,12.20
2019-03-23T20:30:26.012Z,12.60
2019-03-23T20:32:55.467Z,12.70
2019-03-23T20:35:24.987Z,12.90
2019-03-23T20:37:54.455Z,12.90
2019-03-23T20:40:24.018Z,12.60
2019-03-23T20:42:53.739Z,12.50
2019-03-23T20:45:30.713Z,12.70
2019-03-23T20:48:00.627Z,12.50
2019-03-23T20:50:32.566Z,12.40
2019-03-23T20:53:01.945Z,12.00
2019-03-23T20:55:31.897Z,12.30
2019-03-23T20:58:01.325Z,12.50
2019-03-23T21:00:30.675Z,12.10
2019-03-23T21:03:00.009Z,11.80
2019-03-23T21:05:33.827Z,11.60
2019-03-23T21:08:00.562Z,11.60
2019-03-23T21:10:29.882Z,11.80
2019-03-23T21:12:59.449Z,12.00
2019-03-23T21:15:29.031Z,11.70
2019-03-23T21:17:58.455Z,11.60
2019-03-23T21:20:27.919Z,11.80
2019-03-23T21:22:57.358Z,12.00
2019-03-23T21:25:26.799Z,12.00
2019-03-23T21:27:56.300Z,12.00
2019-03-23T21:30:25.802Z,11.90
2019-03-23T21:32:55.167Z,11.90
2019-03-23T21:35:24.536Z,11.90
2019-03-23T21:37:54.079Z,11.90
2019-03-23T21:40:23.686Z,11.70
2019-03-23T21:42:53.038Z,11.80
2019-03-23T21:45:22.664Z,11.80
2019-03-23T21:47:52.179Z,11.80
2019-03-23T21:50:21.593Z,11.80
2019-03-23T21:52:50.969Z,11.70
2019-03-23T21:55:20.322Z,11.80
2019-03-23T21:57:49.868Z,11.80
2019-03-23T22:00:31.141Z,11.80
2019-03-23T22:03:00.807Z,11.90
2019-03-23T22:05:30.545Z,11.80
2019-03-23T22:08:00.137Z,11.40
2019-03-23T22:10:29.771Z,11.30
2019-03-23T22:12:59.188Z,11.30
2019-03-23T22:15:32.237Z,11.40
2019-03-23T22:18:01.933Z,11.70
2019-03-23T22:20:31.602Z,11.40
2019-03-23T22:23:01.365Z,11.40
2019-03-23T22:25:30.762Z,11.40
2019-03-23T22:28:00.364Z,11.40
2019-03-23T22:30:31.348Z,11.50
2019-03-23T22:33:00.837Z,11.40
2019-03-23T22:35:30.499Z,11.40
2019-03-23T22:38:03.069Z,11.40
2019-03-23T22:40:32.617Z,11.50
2019-03-23T22:43:02.162Z,11.50
2019-03-23T22:45:31.518Z,11.50
2019-03-23T22:48:00.910Z,11.40
2019-03-23T22:50:30.317Z,11.60
2019-03-23T22:53:00.029Z,11.30
2019-03-23T22:55:29.607Z,11.20
2019-03-23T22:57:59.061Z,11.40
2019-03-23T23:00:46.726Z,11.40
2019-03-23T23:03:16.398Z,11.10
2019-03-23T23:05:45.944Z,11.20
2019-03-23T23:08:15.437Z,10.70
2019-03-23T23:10:44.841Z,10.70
2019-03-23T23:13:14.641Z,11.00
2019-03-23T23:15:44.113Z,11.20
2019-03-23T23:18:13.691Z,11.20
2019-03-23T23:20:43.108Z,11.10
2019-03-23T23:23:12.488Z,11.20
2019-03-23T23:25:41.917Z,11.30
2019-03-23T23:28:11.215Z,11.00
2019-03-23T23:30:40.729Z,11.10
2019-03-23T23:33:10.024Z,11.10
2019-03-23T23:35:39.469Z,11.20
2019-03-23T23:38:08.978Z,11.20
2019-03-23T23:40:38.322Z,11.10
2019-03-23T23:43:07.669Z,10.90
2019-03-23T23:45:37.062Z,10.90
2019-03-23T23:48:06.578Z,10.90
2019-03-23T23:50:35.904Z,10.90
2019-03-23T23:53:05.570Z,10.80
2019-03-23T23:55:35.017Z,10.80
2019-03-23T23:58:04.570Z,10.70
